Time;durP1;ratioP1;P1;durP2;ratioP2;P2;SDS_P1;SDS_P2;PMS_P1;PMS_P2;Temp;Humidity;BMP_temperature;BMP_pressure;BME280_temperature;BME280_humidity;BME280_pressure;Samples;Min_cycle;Max_cycle;Signal;HPM_P1;HPM_P2
2022/03/15 00:00:19;;;;;;;79.37;15.27;;;;;;;;;;5049319;28;20195;-63
2022/03/15 00:02:45;;;;;;;145.23;23.00;;;;;;;;;;5047335;28;20672;-63
2022/03/15 00:05:11;;;;;;;124.33;20.53;;;;;;;;;;5045242;28;20186;-63
2022/03/15 00:07:37;;;;;;;89.07;15.97;;;;;;;;;;5051007;28;20255;-63
2022/03/15 00:10:03;;;;;;;102.90;17.70;;;7.80;99.90;;;;;;5048530;28;20300;-63
2022/03/15 00:12:29;;;;;;;112.77;18.60;;;;;;;;;;5050971;28;20817;-63
2022/03/15 00:14:55;;;;;;;58.57;12.13;;;7.50;99.90;;;;;;5037078;28;20506;-63
2022/03/15 00:17:21;;;;;;;84.03;15.53;;;;;;;;;;5055893;28;20207;-63
2022/03/15 00:19:47;;;;;;;101.40;18.30;;;9.10;99.90;;;;;;5053410;28;20344;-63
2022/03/15 00:22:14;;;;;;;55.33;11.57;;;;;;;;;;5049185;28;20296;-63
2022/03/15 00:24:41;;;;;;;81.43;15.43;;;;;;;;;;5053496;28;20801;-63
2022/03/15 00:27:07;;;;;;;73.93;14.47;;;;;;;;;;5053405;28;20574;-63
2022/03/15 00:29:35;;;;;;;79.23;14.90;;;;;;;;;;5052248;28;20206;-63
2022/03/15 00:32:01;;;;;;;110.03;18.87;;;;;;;;;;5050134;28;20286;-63
2022/03/15 00:34:27;;;;;;;78.70;14.83;;;;;;;;;;5045225;28;20681;-63
2022/03/15 00:36:53;;;;;;;135.50;22.43;;;;;;;;;;5045853;28;20252;-63
2022/03/15 00:39:19;;;;;;;79.73;14.50;;;;;;;;;;5047720;28;20260;-63
2022/03/15 00:41:45;;;;;;;133.33;21.80;;;;;;;;;;5044046;28;20919;-63
2022/03/15 00:44:11;;;;;;;65.83;13.53;;;;;;;;;;5047782;28;20267;-63
2022/03/15 00:46:37;;;;;;;89.63;16.37;;;;;;;;;;5047807;28;20352;-63
2022/03/15 00:49:03;;;;;;;73.13;14.17;;;;;;;;;;5056400;28;20199;-63
2022/03/15 00:51:29;;;;;;;113.83;18.70;;;;;;;;;;5051461;28;20187;-63
2022/03/15 00:53:55;;;;;;;88.40;15.90;;;;;;;;;;5052727;28;20997;-63
2022/03/15 00:56:21;;;;;;;98.13;16.63;;;;;;;;;;5049794;28;20341;-63
2022/03/15 00:58:48;;;;;;;148.10;23.83;;;;;;;;;;5052259;28;20195;-63
2022/03/15 01:01:14;;;;;;;81.60;15.10;;;;;;;;;;5053896;28;20265;-63
2022/03/15 01:03:40;;;;;;;97.27;17.40;;;;;;;;;;5050091;28;20300;-63
2022/03/15 01:06:05;;;;;;;67.63;13.53;;;8.00;99.90;;;;;;5049939;28;20193;-63
2022/03/15 01:08:31;;;;;;;89.70;15.17;;;;;;;;;;5053278;28;20692;-63
2022/03/15 01:10:57;;;;;;;111.13;18.27;;;;;;;;;;5051795;28;20187;-64
2022/03/15 01:13:23;;;;;;;119.30;20.33;;;7.60;99.90;;;;;;5047326;28;20195;-63
2022/03/15 01:15:50;;;;;;;106.10;19.00;;;;;;;;;;5054703;28;20705;-64
2022/03/15 01:18:16;;;;;;;104.43;17.07;;;;;;;;;;5050194;28;20584;-63
2022/03/15 01:20:44;;;;;;;154.90;24.07;;;7.80;99.90;;;;;;5051645;28;20187;-63
2022/03/15 01:23:09;;;;;;;86.63;14.93;;;;;;;;;;5051669;28;20194;-63
2022/03/15 01:25:37;;;;;;;69.30;12.63;;;7.80;99.90;;;;;;5055922;28;20191;-63
2022/03/15 01:28:03;;;;;;;120.30;19.93;;;;;;;;;;5050883;28;20732;-63
2022/03/15 01:30:30;;;;;;;63.67;12.93;;;;;;;;;;5049415;28;20507;-63
2022/03/15 01:32:56;;;;;;;131.40;21.57;;;;;;;;;;5049781;28;20201;-64
2022/03/15 01:35:22;;;;;;;99.80;17.60;;;;;;;;;;5049999;28;20191;-63
2022/03/15 01:37:48;;;;;;;114.20;19.27;;;;;;;;;;5052609;28;20647;-63
2022/03/15 01:40:14;;;;;;;84.83;14.67;;;;;;;;;;5055392;28;20183;-63
2022/03/15 01:42:40;;;;;;;127.43;19.90;;;;;;;;;;5046044;28;20190;-63
2022/03/15 01:45:06;;;;;;;109.17;18.13;;;7.70;99.90;;;;;;5047943;28;20198;-64
2022/03/15 01:47:33;;;;;;;72.53;13.73;;;;;;;;;;5052592;28;20184;-63
2022/03/15 01:49:59;;;;;;;89.37;15.70;;;;;;;;;;5052295;28;20642;-63
2022/03/15 01:52:25;;;;;;;80.47;14.67;;;;;;;;;;5048694;28;20191;-64
2022/03/15 01:54:51;;;;;;;104.40;17.00;;;;;;;;;;5049650;28;22461;-63
2022/03/15 01:57:16;;;;;;;76.50;13.53;;;;;;;;;;5050794;28;20218;-63
2022/03/15 01:59:42;;;;;;;92.67;15.70;;;;;;;;;;5050400;28;20199;-63
2022/03/15 02:02:09;;;;;;;93.40;16.87;;;7.50;99.90;;;;;;5049786;28;20187;-63
2022/03/15 02:04:36;;;;;;;117.67;19.73;;;7.40;99.90;;;;;;5045255;28;20632;-63
2022/03/15 02:07:15;;;;;;;68.23;12.43;;;7.40;99.90;;;;;;5054046;28;20178;-63
2022/03/15 02:09:41;;;;;;;113.73;18.90;;;;;;;;;;5053484;28;20255;-63
2022/03/15 02:12:07;;;;;;;102.73;16.80;;;7.40;99.90;;;;;;5028862;28;20203;-63
2022/03/15 02:14:34;;;;;;;68.70;13.67;;;;;;;;;;5051344;28;20222;-63
2022/03/15 02:17:00;;;;;;;79.70;14.57;;;;;;;;;;5056345;28;20285;-63
2022/03/15 02:19:27;;;;;;;104.33;17.90;;;;;;;;;;5046435;28;20392;-63
2022/03/15 02:21:53;;;;;;;109.87;18.53;;;7.20;99.90;;;;;;5051127;28;20185;-63
2022/03/15 02:24:19;;;;;;;50.27;10.83;;;;;;;;;;5056519;28;20191;-63
2022/03/15 02:26:45;;;;;;;133.83;20.70;;;6.80;99.90;;;;;;5048942;28;20183;-63
2022/03/15 02:29:11;;;;;;;72.57;13.03;;;6.70;99.90;;;;;;5053779;28;20207;-63
2022/03/15 02:31:36;;;;;;;62.63;11.30;;;;;;;;;;5052931;28;20309;-63
2022/03/15 02:34:02;;;;;;;82.13;13.53;;;;;;;;;;5054611;28;20187;-63
2022/03/15 02:36:28;;;;;;;102.37;16.63;;;;;;;;;;5050209;28;20230;-64
2022/03/15 02:38:54;;;;;;;135.93;20.20;;;;;;;;;;5048229;28;20276;-63
2022/03/15 02:41:20;;;;;;;126.70;19.17;;;;;;;;;;5048718;28;20233;-63
2022/03/15 02:43:46;;;;;;;85.13;14.67;;;;;;;;;;5059033;28;20191;-63
2022/03/15 02:46:12;;;;;;;69.97;11.77;;;6.60;99.90;;;;;;5053796;28;20604;-63
2022/03/15 02:48:38;;;;;;;98.30;15.90;;;;;;;;;;5047492;28;22524;-63
2022/03/15 02:51:09;;;;;;;94.30;15.10;;;;;;;;;;5029541;28;20179;-63
2022/03/15 02:53:36;;;;;;;79.00;13.23;;;6.50;99.90;;;;;;5049260;28;20239;-63
2022/03/15 02:56:02;;;;;;;85.20;13.70;;;;;;;;;;5051240;28;20346;-63
2022/03/15 02:58:28;;;;;;;104.30;16.27;;;;;;;;;;5047402;28;20232;-63
2022/03/15 03:00:54;;;;;;;65.90;11.67;;;;;;;;;;5051218;28;20734;-63
2022/03/15 03:03:22;;;;;;;109.17;16.87;;;;;;;;;;5048942;28;20262;-63
2022/03/15 03:05:48;;;;;;;94.83;14.93;;;;;;;;;;5046993;28;20302;-63
2022/03/15 03:08:16;;;;;;;69.77;11.87;;;6.90;99.90;;;;;;5049057;28;20344;-63
2022/03/15 03:10:42;;;;;;;83.60;13.77;;;;;;;;;;5034804;28;20266;-63
2022/03/15 03:13:09;;;;;;;70.40;12.03;;;;;;;;;;5045957;28;20247;-63
2022/03/15 03:15:36;;;;;;;47.70;9.57;;;;;;;;;;5038451;28;20355;-63
2022/03/15 03:18:01;;;;;;;57.43;9.83;;;;;;;;;;5056326;28;21096;-63
2022/03/15 03:20:29;;;;;;;75.63;12.13;;;;;;;;;;5047591;28;20183;-63
2022/03/15 03:22:55;;;;;;;71.80;12.57;;;;;;;;;;5038606;28;20256;-63
2022/03/15 03:25:21;;;;;;;88.23;13.83;;;;;;;;;;5030379;28;20191;-63
2022/03/15 03:27:47;;;;;;;82.13;13.23;;;;;;;;;;5046239;28;20306;-63
2022/03/15 03:30:13;;;;;;;80.30;12.93;;;;;;;;;;5046359;28;20189;-63
2022/03/15 03:32:40;;;;;;;101.87;16.20;;;;;;;;;;5052778;28;20199;-63
2022/03/15 03:35:06;;;;;;;80.10;13.50;;;;;;;;;;5049090;28;20187;-63
2022/03/15 03:37:34;;;;;;;76.67;12.80;;;6.70;99.90;;;;;;5048596;28;20221;-63
2022/03/15 03:40:05;;;;;;;80.00;13.40;;;6.80;99.90;;;;;;5044661;28;20260;-63
2022/03/15 03:42:30;;;;;;;117.07;17.57;;;;;;;;;;5046143;28;20179;-63
2022/03/15 03:44:56;;;;;;;79.07;13.33;;;;;;;;;;5050904;28;20199;-63
2022/03/15 03:47:22;;;;;;;75.33;12.33;;;;;;;;;;5053009;28;20316;-63
2022/03/15 03:49:48;;;;;;;101.17;15.37;;;;;;;;;;5047844;28;20724;-63
2022/03/15 03:52:14;;;;;;;62.30;11.23;;;;;;;;;;5049539;28;20194;-63
2022/03/15 03:54:40;;;;;;;90.67;14.20;;;;;;;;;;5035673;28;20292;-63
2022/03/15 03:57:06;;;;;;;41.90;8.47;;;;;;;;;;5050491;28;20740;-63
2022/03/15 03:59:32;;;;;;;70.90;12.33;;;;;;;;;;5050925;28;20698;-63
2022/03/15 04:01:58;;;;;;;71.23;12.27;;;;;;;;;;5051426;28;20183;-63
2022/03/15 04:04:25;;;;;;;101.77;16.07;;;;;;;;;;5046291;28;20278;-63
2022/03/15 04:06:51;;;;;;;94.80;15.40;;;;;;;;;;5033670;28;20182;-63
2022/03/15 04:09:17;;;;;;;58.60;10.57;;;;;;;;;;5047980;28;20203;-63
2022/03/15 04:11:44;;;;;;;107.23;17.07;;;;;;;;;;5045429;28;20198;-63
2022/03/15 04:14:11;;;;;;;79.53;12.67;;;;;;;;;;5051064;28;20179;-63
2022/03/15 04:16:37;;;;;;;93.27;14.57;;;;;;;;;;5032688;28;20246;-63
2022/03/15 04:19:03;;;;;;;72.30;12.20;;;7.00;99.90;;;;;;5051019;28;20316;-63
2022/03/15 04:21:29;;;;;;;68.33;11.87;;;6.50;99.90;;;;;;5049416;28;20569;-63
2022/03/15 04:23:55;;;;;;;129.33;19.03;;;7.00;99.90;;;;;;5052267;28;20804;-63
2022/03/15 04:26:22;;;;;;;109.87;16.73;;;;;;;;;;5051012;28;20194;-63
2022/03/15 04:28:48;;;;;;;106.10;16.57;;;;;;;;;;5051686;28;20237;-63
2022/03/15 04:31:14;;;;;;;76.63;13.20;;;;;;;;;;5036383;28;20265;-63
2022/03/15 04:33:40;;;;;;;101.37;15.63;;;;;;;;;;5050913;28;20232;-63
2022/03/15 04:36:06;;;;;;;78.87;12.50;;;;;;;;;;5059715;28;20715;-63
2022/03/15 04:38:32;;;;;;;83.00;13.00;;;;;;;;;;5052654;28;20332;-63
2022/03/15 04:40:59;;;;;;;79.80;12.53;;;;;;;;;;5054535;28;20270;-63
2022/03/15 04:43:25;;;;;;;91.90;14.43;;;;;;;;;;5054841;28;20280;-63
2022/03/15 04:45:51;;;;;;;75.60;13.23;;;;;;;;;;5055827;28;20760;-63
2022/03/15 04:48:18;;;;;;;108.20;16.67;;;6.90;99.90;;;;;;5055408;28;20268;-63
2022/03/15 04:50:44;;;;;;;84.77;13.90;;;;;;;;;;5048922;28;20250;-63
2022/03/15 04:53:10;;;;;;;102.83;15.97;;;;;;;;;;5052669;28;20195;-63
2022/03/15 04:55:37;;;;;;;71.03;12.23;;;;;;;;;;5051010;28;20881;-63
2022/03/15 04:58:03;;;;;;;50.90;9.80;;;;;;;;;;5041186;28;20219;-63
2022/03/15 05:00:29;;;;;;;78.90;13.30;;;;;;;;;;5051890;28;20546;-63
2022/03/15 05:02:55;;;;;;;65.03;11.83;;;;;;;;;;5055303;28;20183;-63
2022/03/15 05:05:20;;;;;;;67.17;11.27;;;;;;;;;;5054237;28;20228;-63
2022/03/15 05:07:47;;;;;;;110.10;16.40;;;;;;;;;;5052893;28;20335;-63
2022/03/15 05:12:57;;;;;;;67.77;11.83;;;6.70;99.90;;;;;;5048309;28;20292;-64
2022/03/15 05:15:23;;;;;;;57.60;10.43;;;7.10;99.90;;;;;;5055288;28;20206;-63
2022/03/15 05:17:49;;;;;;;126.73;19.07;;;;;;;;;;5050835;28;20238;-63
2022/03/15 05:20:15;;;;;;;84.73;14.40;;;;;;;;;;5049142;28;20774;-63
2022/03/15 05:22:43;;;;;;;107.23;16.93;;;;;;;;;;5055014;28;21128;-63
2022/03/15 05:25:11;;;;;;;71.30;12.00;;;;;;;;;;5052480;28;20254;-63
2022/03/15 05:27:36;;;;;;;80.77;12.70;;;;;;;;;;5048253;28;20304;-64
2022/03/15 05:30:03;;;;;;;71.47;11.60;;;6.90;99.90;;;;;;5050406;28;20229;-63
2022/03/15 05:32:29;;;;;;;55.17;9.53;;;;;;;;;;5052165;28;20206;-63
2022/03/15 05:34:56;;;;;;;94.80;14.47;;;;;;;;;;5048442;28;20192;-63
2022/03/15 05:37:22;;;;;;;63.47;10.80;;;;;;;;;;5053931;28;20347;-63
2022/03/15 05:39:48;;;;;;;113.00;17.23;;;;;;;;;;5055307;28;20206;-63
2022/03/15 05:42:14;;;;;;;75.67;13.07;;;;;;;;;;5044929;28;20674;-63
2022/03/15 05:44:40;;;;;;;143.43;21.13;;;6.60;99.90;;;;;;5052455;28;20175;-63
2022/03/15 05:47:07;;;;;;;74.77;12.40;;;6.70;99.90;;;;;;5052956;28;20221;-63
2022/03/15 05:49:33;;;;;;;85.47;14.00;;;;;;;;;;5050698;28;20717;-63
2022/03/15 05:51:59;;;;;;;84.67;14.20;;;;;;;;;;5047535;28;20294;-63
2022/03/15 05:54:25;;;;;;;86.17;14.43;;;;;;;;;;5052171;28;20190;-63
2022/03/15 05:56:51;;;;;;;136.53;20.27;;;;;;;;;;5045607;28;20211;-63
2022/03/15 05:59:16;;;;;;;92.87;14.80;;;;;;;;;;5051706;28;20350;-63
2022/03/15 06:01:42;;;;;;;92.00;14.03;;;;;;;;;;5047079;28;20686;-63
2022/03/15 06:04:10;;;;;;;75.07;12.63;;;;;;;;;;5055891;28;20266;-63
2022/03/15 06:06:36;;;;;;;47.63;9.10;;;;;;;;;;5052897;28;20189;-63
2022/03/15 06:09:02;;;;;;;66.80;10.87;;;6.80;99.90;;;;;;5050495;28;20218;-63
2022/03/15 06:11:28;;;;;;;96.53;14.23;;;;;;;;;;5052803;28;20545;-63
2022/03/15 06:13:54;;;;;;;83.80;13.23;;;;;;;;;;5055751;28;20187;-64
2022/03/15 06:16:20;;;;;;;52.53;9.23;;;;;;;;;;5056933;28;20288;-64
2022/03/15 06:18:46;;;;;;;76.67;12.13;;;;;;;;;;5054918;28;20249;-63
2022/03/15 06:21:12;;;;;;;93.17;14.23;;;;;;;;;;5054756;28;20674;-63
2022/03/15 06:23:38;;;;;;;121.93;17.20;;;;;;;;;;5026875;28;20183;-63
2022/03/15 06:26:04;;;;;;;102.17;15.00;;;;;;;;;;5042341;28;20207;-63
2022/03/15 06:28:30;;;;;;;53.93;9.23;;;;;;;;;;5052504;28;20213;-63
2022/03/15 06:30:57;;;;;;;51.67;9.00;;;;;;;;;;5055539;28;20192;-63
2022/03/15 06:33:23;;;;;;;73.27;11.93;;;6.60;99.90;;;;;;5056534;28;20549;-63
2022/03/15 06:35:49;;;;;;;112.23;16.27;;;6.40;99.90;;;;;;5051136;28;20188;-63
2022/03/15 06:38:15;;;;;;;88.63;13.90;;;;;;;;;;5050733;28;20247;-63
2022/03/15 06:40:42;;;;;;;96.07;14.80;;;6.50;99.90;;;;;;5054970;28;20285;-63
2022/03/15 06:43:09;;;;;;;59.10;10.17;;;6.80;99.90;;;;;;5055542;28;20656;-63
2022/03/15 06:45:35;;;;;;;83.03;13.03;;;;;;;;;;5038736;28;20174;-63
2022/03/15 06:48:01;;;;;;;171.60;23.30;;;;;;;;;;5041774;28;20253;-63
2022/03/15 06:50:27;;;;;;;75.27;11.90;;;;;;;;;;5050273;28;20257;-63
2022/03/15 06:52:53;;;;;;;120.00;17.00;;;;;;;;;;5040085;28;20210;-63
2022/03/15 06:55:19;;;;;;;55.60;9.30;;;;;;;;;;5038673;28;20210;-63
2022/03/15 06:57:45;;;;;;;147.23;20.33;;;;;;;;;;5054969;28;20242;-63
2022/03/15 07:00:13;;;;;;;132.40;18.00;;;7.00;99.90;;;;;;5048776;28;20625;-63
2022/03/15 07:02:40;;;;;;;96.93;14.93;;;;;;;;;;5041570;28;20192;-63
2022/03/15 07:05:06;;;;;;;44.43;7.73;;;;;;;;;;5055767;28;20297;-63
2022/03/15 07:07:32;;;;;;;58.73;9.93;;;;;;;;;;5036287;28;20187;-63
2022/03/15 07:09:57;;;;;;;89.60;13.57;;;7.10;99.90;;;;;;5051353;28;20567;-63
2022/03/15 07:12:24;;;;;;;69.13;11.50;;;;;;;;;;5051181;28;20186;-63
2022/03/15 07:14:50;;;;;;;84.90;12.90;;;;;;;;;;5047983;28;20190;-63
2022/03/15 07:17:16;;;;;;;76.20;12.13;;;7.40;99.90;;;;;;5053561;28;20213;-66
2022/03/15 07:19:42;;;;;;;136.40;20.03;;;;;;;;;;5043853;28;20208;-66
2022/03/15 07:22:08;;;;;;;67.53;11.77;;;;;;;;;;5051625;28;20179;-66
2022/03/15 07:24:35;;;;;;;64.77;11.97;;;;;;;;;;5045942;28;20236;-69
2022/03/15 07:27:01;;;;;;;66.17;11.90;;;;;;;;;;5031412;28;20322;-69
2022/03/15 07:29:26;;;;;;;53.00;10.30;;;;;;;;;;5054569;28;20293;-66
2022/03/15 07:31:53;;;;;;;91.23;14.90;;;7.70;99.90;;;;;;5048254;28;20627;-68
2022/03/15 07:34:19;;;;;;;47.93;9.77;;;;;;;;;;5049535;28;20196;-68
2022/03/15 07:36:45;;;;;;;78.77;13.67;;;7.30;99.90;;;;;;5057159;28;20218;-69
2022/03/15 07:39:11;;;;;;;63.93;11.43;;;7.70;99.90;;;;;;5052008;28;20198;-68
2022/03/15 07:41:39;;;;;;;69.13;12.53;;;;;;;;;;5049749;28;20195;-68
2022/03/15 07:44:05;;;;;;;263.17;35.90;;;;;;;;;;5041804;28;20304;-72
2022/03/15 07:46:31;;;;;;;64.63;11.87;;;;;;;;;;5032052;28;20278;-71
2022/03/15 07:48:57;;;;;;;53.63;10.03;;;;;;;;;;5051068;28;20221;-68
2022/03/15 07:51:23;;;;;;;141.00;20.53;;;;;;;;;;5045541;28;20191;-67
2022/03/15 07:53:49;;;;;;;103.10;16.07;;;;;;;;;;5028174;28;20193;-67
2022/03/15 07:56:17;;;;;;;85.57;13.87;;;;;;;;;;5045104;28;20608;-68
2022/03/15 07:58:42;;;;;;;99.40;15.57;;;;;;;;;;5055851;28;20214;-68
2022/03/15 08:01:08;;;;;;;84.40;13.63;;;;;;;;;;5058779;28;20187;-68
2022/03/15 08:03:34;;;;;;;59.47;10.70;;;;;;;;;;5056986;28;20261;-68
2022/03/15 08:06:00;;;;;;;67.33;11.57;;;8.20;99.90;;;;;;5055469;28;20207;-67
2022/03/15 08:08:26;;;;;;;76.90;12.53;;;;;;;;;;5060332;28;20293;-59
2022/03/15 08:10:52;;;;;;;75.87;12.50;;;;;;;;;;5060813;28;20178;-60
2022/03/15 08:13:18;;;;;;;105.23;16.33;;;;;;;;;;5042523;28;20187;-59
2022/03/15 08:15:44;;;;;;;71.30;12.47;;;;;;;;;;5041362;28;20236;-60
2022/03/15 08:18:11;;;;;;;191.93;27.43;;;;;;;;;;5040267;28;20642;-60
2022/03/15 08:20:39;;;;;;;74.97;12.23;;;;;;;;;;5047165;28;20238;-60
2022/03/15 08:23:05;;;;;;;88.27;14.17;;;9.30;99.90;;;;;;5039730;28;20183;-69
2022/03/15 08:25:31;;;;;;;79.00;13.10;;;;;;;;;;5055259;28;20181;-69
2022/03/15 08:27:58;;;;;;;53.67;9.80;;;;;;;;;;5028314;28;20218;-68
2022/03/15 08:30:24;;;;;;;66.57;11.23;;;;;;;;;;5058247;28;20211;-69
2022/03/15 08:32:50;;;;;;;129.57;18.93;;;;;;;;;;5049292;28;20301;-69
2022/03/15 08:35:16;;;;;;;77.37;12.63;;;;;;;;;;5046821;28;20191;-69
2022/03/15 08:37:42;;;;;;;63.13;10.97;;;;;;;;;;5033104;28;20206;-70
2022/03/15 08:40:09;;;;;;;74.57;11.67;;;9.00;99.90;;;;;;5029934;28;20179;-71
2022/03/15 08:42:35;;;;;;;67.20;11.30;;;;;;;;;;5034402;28;20648;-70
2022/03/15 08:45:00;;;;;;;125.77;18.77;;;;;;;;;;5050444;28;20237;-69
2022/03/15 08:47:28;;;;;;;65.17;11.30;;;;;;;;;;5058426;28;20276;-68
2022/03/15 08:49:55;;;;;;;141.87;20.30;;;;;;;;;;5037301;28;20501;-71
2022/03/15 08:52:21;;;;;;;65.93;10.80;;;;;;;;;;5027128;28;20204;-69
2022/03/15 08:54:47;;;;;;;70.07;11.83;;;;;;;;;;5053214;28;20605;-69
2022/03/15 08:57:14;;;;;;;95.17;14.90;;;;;;;;;;5054996;28;20289;-69
2022/03/15 08:59:40;;;;;;;139.93;21.23;;;;;;;;;;5037366;28;20647;-70
2022/03/15 09:02:09;;;;;;;106.80;16.70;;;;;;;;;;5046977;28;20206;-69
2022/03/15 09:04:35;;;;;;;48.57;9.33;;;;;;;;;;5060479;28;20600;-76
2022/03/15 09:07:00;;;;;;;33.97;7.67;;;9.60;99.90;;;;;;5058101;28;20735;-68
2022/03/15 09:09:27;;;;;;;44.17;8.83;;;;;;;;;;5061531;28;20206;-73
2022/03/15 09:11:53;;;;;;;92.10;14.83;;;;;;;;;;5036205;28;20362;-70
2022/03/15 09:14:19;;;;;;;113.93;17.53;;;;;;;;;;5041844;28;20400;-70
2022/03/15 09:16:45;;;;;;;73.90;13.23;;;;;;;;;;5058302;28;20276;-68
2022/03/15 09:19:11;;;;;;;85.33;13.97;;;;;;;;;;5060849;28;20560;-70
2022/03/15 09:21:37;;;;;;;63.47;11.43;;;;;;;;;;5056539;28;20237;-70
2022/03/15 09:24:03;;;;;;;48.27;9.53;;;9.80;99.90;;;;;;5052010;28;20183;-70
2022/03/15 09:26:29;;;;;;;75.10;12.67;;;;;;;;;;5056345;28;20337;-70
2022/03/15 09:28:56;;;;;;;93.43;15.00;;;;;;;;;;5052233;28;20759;-71
2022/03/15 09:31:22;;;;;;;45.13;8.57;;;;;;;;;;5062379;28;20904;-69
2022/03/15 09:33:48;;;;;;;111.67;16.97;;;;;;;;;;5057517;28;20198;-69
2022/03/15 09:36:15;;;;;;;51.53;9.53;;;9.80;99.90;;;;;;5054825;28;20613;-71
2022/03/15 09:38:41;;;;;;;124.67;18.83;;;;;;;;;;5046176;28;20211;-69
2022/03/15 09:41:07;;;;;;;77.20;13.07;;;9.60;99.90;;;;;;5050818;28;20199;-70
2022/03/15 09:43:38;;;;;;;130.83;20.07;;;10.00;99.90;;;;;;5026251;28;20191;-66
2022/03/15 09:46:05;;;;;;;85.80;13.77;;;10.00;99.90;;;;;;5056847;28;20190;-69
2022/03/15 09:48:31;;;;;;;72.57;12.83;;;10.10;99.90;;;;;;5051076;28;20207;-69
2022/03/15 09:50:57;;;;;;;133.87;20.43;;;;;;;;;;5048901;28;20714;-76
2022/03/15 09:53:23;;;;;;;89.03;14.70;;;;;;;;;;5049000;28;20195;-69
2022/03/15 09:55:49;;;;;;;86.47;14.53;;;;;;;;;;5047081;28;20199;-72
2022/03/15 09:58:20;;;;;;;42.53;8.93;;;10.50;99.90;;;;;;5041026;28;20295;-74
2022/03/15 10:00:54;;;;;;;102.33;16.17;;;13.90;99.90;;;;;;5043378;28;20175;-69
2022/03/15 10:03:20;;;;;;;107.90;17.07;;;;;;;;;;5041990;28;20895;-71
2022/03/15 10:05:46;;;;;;;99.70;16.30;;;;;;;;;;5036573;28;20190;-69
2022/03/15 10:08:15;;;;;;;81.90;14.10;;;10.60;99.90;;;;;;5046241;28;20294;-69
2022/03/15 10:10:42;;;;;;;80.80;14.03;;;10.70;99.90;;;;;;5043220;28;20184;-69
2022/03/15 10:13:08;;;;;;;109.97;17.27;;;;;;;;;;5034221;28;20681;-69
2022/03/15 10:15:34;;;;;;;284.23;41.90;;;;;;;;;;5040583;28;20198;-70
2022/03/15 10:18:04;;;;;;;101.53;16.83;;;;;;;;;;5026671;28;20280;-70
2022/03/15 10:20:41;;;;;;;68.50;12.43;;;11.10;99.90;;;;;;5050818;28;20727;-69
2022/03/15 10:23:09;;;;;;;72.13;13.07;;;;;;;;;;5032059;28;20818;-70
2022/03/15 10:25:35;;;;;;;89.43;15.47;;;;;;;;;;5059252;28;20516;-70
2022/03/15 10:28:04;;;;;;;169.80;25.80;;;11.50;20.70;;;;;;5055732;28;20268;-69
2022/03/15 10:30:31;;;;;;;78.47;14.10;;;11.50;13.20;;;;;;5056454;28;20226;-70
2022/03/15 10:32:57;;;;;;;56.10;11.17;;;11.80;2.70;;;;;;5032506;28;20203;-69
2022/03/15 10:35:27;;;;;;;71.83;13.13;;;11.80;1.00;;;;;;5054922;28;20554;-70
2022/03/15 10:37:54;;;;;;;85.10;14.50;;;11.80;1.00;;;;;;5054569;28;20225;-69
2022/03/15 10:40:36;;;;;;;81.90;14.70;;;11.90;1.00;;;;;;5048679;27;20575;-58
2022/03/15 10:43:11;;;;;;;95.40;17.10;;;12.00;1.00;;;;;;5040772;28;20194;-58
2022/03/15 10:45:41;;;;;;;127.37;21.60;;;12.00;1.00;;;;;;5034435;28;20222;-58
2022/03/15 10:48:20;;;;;;;105.90;19.13;;;12.20;1.00;;;;;;5032978;28;20267;-57
2022/03/15 10:50:58;;;;;;;78.03;14.17;;;12.60;1.00;;;;;;5034194;28;20601;-57
2022/03/15 10:53:28;;;;;;;182.45;29.88;;;12.40;1.00;;;;;;5026352;28;20184;-57
2022/03/15 10:56:21;;;;;;;168.85;26.90;;;12.60;1.00;;;;;;5032582;28;20265;-57
2022/03/15 10:58:48;;;;;;;78.70;13.70;;;12.70;1.00;;;;;;5035840;28;20203;-56
2022/03/15 11:01:17;;;;;;;89.03;15.57;;;12.90;1.00;;;;;;5033591;28;20223;-57
2022/03/15 11:04:04;;;;;;;94.10;17.27;;;13.10;1.00;;;;;;5028729;28;20203;-58
2022/03/15 11:06:38;;;;;;;63.03;12.20;;;12.90;1.00;;;;;;5034035;28;20215;-57
2022/03/15 11:09:31;;;;;;;109.40;18.77;;;13.20;99.90;;;;;;5034649;28;20183;-58
2022/03/15 11:12:04;;;;;;;112.85;19.48;;;13.20;1.00;;;;;;5040279;28;20175;-57
2022/03/15 11:14:40;;;;;;;65.35;12.38;;;13.10;1.00;;;;;;5042251;28;20207;-57
2022/03/15 11:17:13;;;;;;;39.70;9.02;;;12.90;1.00;;;;;;5055049;28;20259;-58
2022/03/15 11:19:43;;;;;;;62.13;12.23;;;13.10;1.00;;;;;;5054455;28;20272;-58
2022/03/15 11:22:09;;;;;;;74.50;13.57;;;13.00;99.90;;;;;;5051824;28;20744;-58
2022/03/15 11:24:39;;;;;;;47.65;10.07;;;13.00;99.90;;;;;;5060066;28;20203;-58
2022/03/15 11:27:07;;;;;;;47.28;9.88;;;13.40;99.90;;;;;;5054747;28;20541;-58
2022/03/15 11:29:34;;;;;;;48.60;10.35;;;;;;;;;;5053734;28;20191;-58
2022/03/15 11:32:01;;;;;;;93.22;16.30;;;13.40;99.90;;;;;;5051949;28;20214;-57
2022/03/15 11:34:27;;;;;;;57.28;11.40;;;;;;;;;;5047393;28;20245;-58
2022/03/15 11:36:54;;;;;;;67.25;13.10;;;13.80;97.60;;;;;;5054636;28;20530;-57
2022/03/15 11:39:20;;;;;;;64.22;13.23;;;;;;;;;;5057468;28;20301;-58
2022/03/15 11:41:46;;;;;;;54.10;11.70;;;;;;;;;;5058029;28;20176;-57
2022/03/15 11:44:35;;;;;;;92.47;18.23;;;14.50;99.90;;;;;;5048898;28;20218;-58
2022/03/15 11:47:21;;;;;;;66.40;14.63;;;14.20;1.00;;;;;;5036555;28;20238;-57
2022/03/15 11:49:53;;;;;;;109.28;21.17;;;14.20;1.00;;;;;;5036337;28;20188;-57
2022/03/15 11:52:51;;;;;;;64.20;14.27;;;14.20;1.00;;;;;;5029566;28;20191;-57
2022/03/15 11:55:29;;;;;;;121.40;21.52;;;14.30;27.70;;;;;;5026628;28;20218;-57
2022/03/15 11:58:01;;;;;;;86.85;16.70;;;14.40;1.00;;;;;;5034409;28;20233;-57
2022/03/15 12:00:42;;;;;;;71.03;14.50;;;14.50;62.00;;;;;;5027103;28;20859;-58
2022/03/15 12:03:08;;;;;;;49.10;11.02;;;14.20;99.90;;;;;;5031015;28;20180;-58
2022/03/15 12:05:51;;;;;;;109.28;19.45;;;14.60;1.00;;;;;;5027049;28;20209;-58
2022/03/15 12:08:23;;;;;;;67.63;13.10;;;14.80;99.90;;;;;;5025726;28;20210;-57
2022/03/15 12:10:57;;;;;;;64.60;12.13;;;14.70;99.90;;;;;;5023136;28;20203;-58
2022/03/15 12:13:45;;;;;;;137.88;22.85;;;14.90;99.90;;;;;;5018093;28;20701;-57
2022/03/15 12:16:24;;;;;;;98.78;16.77;;;15.00;99.90;;;;;;5017979;28;20624;-57
2022/03/15 12:19:45;;;;;;;63.72;11.98;;;15.00;99.90;;;;;;5019098;28;20294;-57
2022/03/15 12:21:55;;;;;;;87.15;15.98;;;15.20;99.90;;;;;;5027717;28;20260;-58
2022/03/15 12:24:39;;;;;;;70.45;13.38;;;15.10;63.00;;;;;;5026123;28;20279;-57
2022/03/15 12:27:07;;;;;;;112.15;19.55;;;15.00;1.00;;;;;;5024566;28;20601;-58
2022/03/15 12:29:33;;;;;;;59.97;12.43;;;;;;;;;;5026643;28;21543;-58
2022/03/15 12:32:19;;;;;;;89.68;17.02;;;15.60;10.60;;;;;;5018398;28;20192;-58
2022/03/15 12:34:49;;;;;;;63.75;13.27;;;15.80;1.00;;;;;;5027542;28;20291;-58
2022/03/15 12:37:16;;;;;;;137.50;23.88;;;15.90;1.00;;;;;;5015475;28;20306;-58
2022/03/15 12:39:52;;;;;;;83.57;16.40;;;16.10;99.90;;;;;;5026854;28;20215;-58
2022/03/15 12:42:18;;;;;;;52.25;10.35;;;;;;;;;;5015522;28;20327;-57
2022/03/15 12:44:49;;;;;;;67.13;12.88;;;16.00;99.90;;;;;;5023780;28;20258;-58
2022/03/15 12:47:22;;;;;;;67.32;13.43;;;16.00;1.00;;;;;;5026631;28;20183;-57
2022/03/15 12:50:09;;;;;;;104.28;19.27;;;16.40;99.90;;;;;;5022354;28;20581;-58
2022/03/15 12:52:45;;;;;;;56.72;12.15;;;16.30;1.00;;;;;;5034113;28;20745;-58
2022/03/15 12:55:20;;;;;;;68.72;14.60;;;15.90;41.70;;;;;;5035536;28;20253;-59
2022/03/15 12:57:54;;;;;;;63.75;14.00;;;16.30;45.10;;;;;;5025647;28;20195;-58
2022/03/15 13:00:24;;;;;;;95.20;19.08;;;16.40;53.10;;;;;;5026303;28;20215;-58
2022/03/15 13:02:52;;;;;;;99.25;20.35;;;16.80;70.40;;;;;;5019843;28;20234;-58
2022/03/15 13:05:20;;;;;;;99.53;20.23;;;;;;;;;;5021014;28;20318;-57
2022/03/15 13:07:51;;;;;;;140.43;26.33;;;16.20;76.00;;;;;;5020294;28;20267;-57
2022/03/15 13:10:52;;;;;;;124.43;24.67;;;16.70;70.50;;;;;;5017083;28;20229;-57
2022/03/15 13:13:18;;;;;;;103.88;21.20;;;;;;;;;;5014921;28;20514;-58
2022/03/15 13:16:00;;;;;;;122.05;22.35;;;16.80;68.40;;;;;;5023743;28;20490;-59
2022/03/15 13:18:27;;;;;;;90.15;17.90;;;16.80;65.10;;;;;;5022907;28;20647;-58
2022/03/15 13:21:01;;;;;;;85.65;18.13;;;16.80;73.30;;;;;;5021374;28;20762;-59
2022/03/15 13:23:30;;;;;;;139.77;26.58;;;16.70;74.80;;;;;;5027642;28;20196;-58
2022/03/15 13:26:11;;;;;;;79.45;17.10;;;16.90;75.60;;;;;;5026758;28;20226;-58
2022/03/15 13:28:47;;;;;;;71.90;16.75;;;17.00;74.20;;;;;;5028503;28;20220;-58
2022/03/15 13:31:15;;;;;;;72.70;16.55;;;17.10;71.70;;;;;;5024945;28;20325;-58
2022/03/15 13:33:50;;;;;;;119.97;22.83;;;17.20;75.50;;;;;;5013544;28;20294;-58
2022/03/15 13:36:27;;;;;;;113.10;22.27;;;17.40;72.40;;;;;;5017234;28;20257;-58
2022/03/15 13:39:04;;;;;;;74.80;16.60;;;17.60;72.70;;;;;;5026900;28;20211;-58